createdAt,value
2023-03-18T00:00:43.614Z,12.38
2023-03-18T00:08:16.897Z,9.20
2023-03-18T00:10:46.908Z,7.57
2023-03-18T00:13:16.962Z,12.77
2023-03-18T00:15:46.971Z,10.60
2023-03-18T00:18:17.031Z,10.35
2023-03-18T00:20:47.318Z,10.30
2023-03-18T00:23:21.315Z,9.15
2023-03-18T00:25:51.804Z,9.95
2023-03-18T00:28:21.878Z,11.02
2023-03-18T00:30:52.580Z,12.15
2023-03-18T00:33:23.400Z,8.85
2023-03-18T00:35:53.475Z,12.20
2023-03-18T00:38:26.764Z,11.85
2023-03-18T00:41:01.677Z,15.65
2023-03-18T00:43:36.076Z,8.05
2023-03-18T00:46:06.718Z,10.30
2023-03-18T00:48:36.796Z,9.13
2023-03-18T00:51:07.218Z,11.15
2023-03-18T00:53:40.498Z,11.75
2023-03-18T00:56:11.362Z,8.20
2023-03-18T00:58:42.150Z,9.55
2023-03-18T01:01:13.915Z,8.98
2023-03-18T01:03:45.499Z,7.93
2023-03-18T01:06:20.186Z,9.75
2023-03-18T01:08:54.020Z,9.73
2023-03-18T01:11:24.748Z,9.68
2023-03-18T01:13:55.934Z,10.95
2023-03-18T01:16:26.502Z,10.30
2023-03-18T01:18:56.705Z,12.40
2023-03-18T01:21:27.196Z,10.27
2023-03-18T01:24:00.625Z,9.07
2023-03-18T01:26:31.051Z,9.75
2023-03-18T01:29:01.419Z,14.13
2023-03-18T01:31:31.492Z,11.43
2023-03-18T01:34:02.337Z,8.05
2023-03-18T01:36:33.437Z,9.40
2023-03-18T01:39:06.653Z,9.80
2023-03-18T01:41:37.233Z,7.85
2023-03-18T01:44:07.471Z,13.73
2023-03-18T01:46:39.933Z,9.32
2023-03-18T01:49:14.280Z,11.75
2023-03-18T01:51:46.793Z,10.77
2023-03-18T01:54:19.956Z,10.85
2023-03-18T01:56:52.456Z,9.95
2023-03-18T01:59:24.416Z,8.10
2023-03-18T02:01:58.381Z,10.43
2023-03-18T02:04:31.937Z,8.90
2023-03-18T02:07:02.925Z,8.75
2023-03-18T02:12:05.943Z,11.18
2023-03-18T02:14:36.073Z,9.48
2023-03-18T02:17:10.712Z,13.57
2023-03-18T02:19:53.432Z,9.75
2023-03-18T02:22:31.156Z,9.57
2023-03-18T02:25:24.793Z,9.63
2023-03-18T02:28:02.007Z,13.30
2023-03-18T02:30:36.700Z,8.73
2023-03-18T02:33:08.385Z,9.88
2023-03-18T02:35:39.610Z,14.10
2023-03-18T02:38:09.699Z,12.07
2023-03-18T02:40:44.505Z,10.88
2023-03-18T02:43:24.490Z,9.02
2023-03-18T02:46:09.615Z,9.40
2023-03-18T02:48:42.387Z,9.30
2023-03-18T02:51:14.409Z,10.35
2023-03-18T02:53:44.645Z,10.35
2023-03-18T02:56:15.205Z,11.20
2023-03-18T02:58:50.077Z,10.52
2023-03-18T03:01:22.933Z,8.48
2023-03-18T03:03:53.356Z,12.43
2023-03-18T03:06:23.518Z,12.50
2023-03-18T03:08:54.021Z,14.10
2023-03-18T03:11:26.126Z,13.07
2023-03-18T03:13:58.818Z,16.00
2023-03-18T03:16:28.967Z,12.50
2023-03-18T03:18:59.311Z,10.55
2023-03-18T03:21:30.015Z,12.38
2023-03-18T03:24:00.440Z,10.32
2023-03-18T03:26:30.897Z,11.55
2023-03-18T03:29:04.571Z,12.93
2023-03-18T03:31:34.973Z,11.98
2023-03-18T03:34:05.389Z,12.60
2023-03-18T03:36:36.007Z,13.02
2023-03-18T03:39:06.944Z,11.05
2023-03-18T03:44:09.691Z,12.38
2023-03-18T03:46:40.074Z,12.20
2023-03-18T03:49:10.160Z,10.75
2023-03-18T03:51:40.574Z,11.90
2023-03-18T03:54:10.691Z,13.18
2023-03-18T03:56:41.311Z,13.13
2023-03-18T03:59:14.005Z,13.15
2023-03-18T04:01:44.789Z,14.35
2023-03-18T04:04:15.686Z,16.73
2023-03-18T04:06:46.548Z,15.23
2023-03-18T04:09:17.349Z,14.98
2023-03-18T04:11:47.732Z,15.55
2023-03-18T04:14:20.411Z,15.55
2023-03-18T04:16:50.938Z,14.95
2023-03-18T04:19:27.373Z,15.55
2023-03-18T04:21:57.837Z,15.77
2023-03-18T04:24:28.215Z,15.48
2023-03-18T04:26:58.632Z,17.98
2023-03-18T04:29:32.485Z,15.55
2023-03-18T04:32:02.771Z,16.00
2023-03-18T04:34:33.124Z,12.98
2023-03-18T04:37:03.956Z,10.90
2023-03-18T04:39:34.329Z,12.02
2023-03-18T04:42:04.551Z,12.35
2023-03-18T04:44:37.351Z,14.98
2023-03-18T04:47:08.080Z,14.32
2023-03-18T04:49:38.250Z,12.93
2023-03-18T04:52:09.123Z,13.95
2023-03-18T04:54:39.830Z,13.32
2023-03-18T04:57:10.223Z,14.38
2023-03-18T04:59:43.098Z,11.88
2023-03-18T05:02:13.512Z,15.48
2023-03-18T05:04:44.065Z,12.45
2023-03-18T05:07:17.038Z,12.20
2023-03-18T05:09:47.273Z,14.55
2023-03-18T05:12:18.592Z,13.85
2023-03-18T05:15:03.635Z,14.52
2023-03-18T05:17:34.318Z,13.43
2023-03-18T05:20:04.531Z,14.38
2023-03-18T05:22:34.629Z,12.38
2023-03-18T05:25:04.863Z,13.20
2023-03-18T05:27:35.162Z,12.77
2023-03-18T05:30:09.385Z,12.77
2023-03-18T05:32:39.756Z,13.07
2023-03-18T05:35:10.619Z,12.63
2023-03-18T05:37:40.864Z,13.25
2023-03-18T05:40:12.945Z,12.60
2023-03-18T05:42:55.286Z,15.18
2023-03-18T05:45:29.140Z,11.98
2023-03-18T05:47:59.695Z,17.63
2023-03-18T05:50:33.898Z,17.83
2023-03-18T05:53:04.274Z,15.88
2023-03-18T05:55:34.902Z,20.10
2023-03-18T05:58:06.071Z,17.42
2023-03-18T06:00:41.621Z,14.65
2023-03-18T06:03:11.728Z,16.90
2023-03-18T06:05:47.073Z,15.00
2023-03-18T06:08:18.091Z,16.80
2023-03-18T06:13:19.038Z,15.70
2023-03-18T06:15:53.150Z,18.25
2023-03-18T06:18:23.366Z,16.35
2023-03-18T06:20:53.587Z,15.73
2023-03-18T06:23:23.848Z,17.10
2023-03-18T06:25:54.302Z,20.33
2023-03-18T06:28:24.950Z,15.70
2023-03-18T06:30:59.113Z,18.13
2023-03-18T06:33:30.129Z,15.52
2023-03-18T06:36:02.591Z,15.68
2023-03-18T06:38:32.770Z,14.05
2023-03-18T06:41:03.095Z,14.77
2023-03-18T06:43:33.452Z,15.30
2023-03-18T06:46:06.308Z,17.10
2023-03-18T06:48:40.496Z,15.95
2023-03-18T06:51:11.589Z,14.40
2023-03-18T06:53:42.201Z,15.93
2023-03-18T06:56:16.015Z,13.20
2023-03-18T06:58:46.943Z,16.05
2023-03-18T07:01:19.902Z,16.10
2023-03-18T07:03:50.211Z,16.30
2023-03-18T07:06:21.343Z,14.38
2023-03-18T07:08:51.512Z,15.82
2023-03-18T07:11:22.132Z,15.00
2023-03-18T07:13:53.243Z,14.00
2023-03-18T07:16:26.348Z,12.95
2023-03-18T07:18:58.423Z,14.30
2023-03-18T07:21:29.546Z,12.40
2023-03-18T07:23:59.788Z,14.82
2023-03-18T07:26:29.875Z,12.68
2023-03-18T07:29:00.139Z,11.43
2023-03-18T07:31:33.010Z,11.70
2023-03-18T07:34:04.062Z,11.50
2023-03-18T07:36:34.245Z,12.95
2023-03-18T07:39:04.449Z,10.00
2023-03-18T07:41:37.294Z,10.60
2023-03-18T07:44:08.376Z,11.70
2023-03-18T07:46:41.344Z,10.82
2023-03-18T07:49:11.528Z,11.35
2023-03-18T07:51:41.935Z,9.68
2023-03-18T07:54:12.180Z,12.07
2023-03-18T07:56:42.173Z,9.18
2023-03-18T07:59:12.560Z,11.38
2023-03-18T08:01:45.216Z,9.90
2023-03-18T08:04:15.552Z,12.75
2023-03-18T08:06:45.665Z,9.77
2023-03-18T08:09:16.033Z,11.13
2023-03-18T08:11:46.231Z,10.15
2023-03-18T08:14:16.712Z,9.43
2023-03-18T08:16:49.760Z,10.45
2023-03-18T08:19:19.896Z,10.02
2023-03-18T08:21:50.179Z,9.27
2023-03-18T08:24:20.503Z,7.57
2023-03-18T08:26:50.697Z,9.13
2023-03-18T08:29:20.829Z,7.53
2023-03-18T08:31:54.375Z,9.60
2023-03-18T08:34:24.692Z,9.10
2023-03-18T08:36:54.967Z,9.75
2023-03-18T08:39:25.168Z,8.77
2023-03-18T08:41:55.177Z,7.97
2023-03-18T08:44:25.267Z,8.18
2023-03-18T08:47:01.487Z,9.07
2023-03-18T08:49:31.713Z,6.93
2023-03-18T08:52:01.947Z,7.63
2023-03-18T08:54:32.034Z,7.05
2023-03-18T08:57:02.095Z,6.65
2023-03-18T08:59:32.314Z,9.48
2023-03-18T09:02:06.444Z,6.55
2023-03-18T09:04:36.915Z,7.13
2023-03-18T09:07:07.636Z,8.55
2023-03-18T09:09:43.588Z,8.20
2023-03-18T09:12:15.001Z,5.00
2023-03-18T09:14:45.688Z,6.55
2023-03-18T09:17:18.513Z,8.50
2023-03-18T09:19:48.831Z,4.57
2023-03-18T09:22:19.062Z,4.85
2023-03-18T09:24:49.249Z,4.93
2023-03-18T09:27:19.439Z,5.45
2023-03-18T09:29:49.631Z,5.25
2023-03-18T09:32:22.297Z,6.45
2023-03-18T09:34:52.362Z,6.13
2023-03-18T09:37:22.803Z,6.10
2023-03-18T09:39:53.415Z,5.43
2023-03-18T09:45:06.239Z,5.38
2023-03-18T09:47:57.680Z,6.00
2023-03-18T09:50:40.294Z,4.32
2023-03-18T09:53:21.440Z,5.93
2023-03-18T09:55:55.916Z,4.10
2023-03-18T09:58:32.991Z,5.88
2023-03-18T10:01:06.614Z,7.38
2023-03-18T10:03:44.620Z,4.70
2023-03-18T10:06:19.825Z,3.72
2023-03-18T10:08:57.901Z,5.07
2023-03-18T10:11:33.324Z,4.88
2023-03-18T10:14:22.900Z,6.55
2023-03-18T10:17:05.867Z,5.05
2023-03-18T10:19:40.273Z,4.45
2023-03-18T10:22:37.946Z,4.32
2023-03-18T10:25:17.719Z,5.03
2023-03-18T10:27:59.276Z,4.10
2023-03-18T10:30:45.756Z,5.32
2023-03-18T10:33:23.180Z,5.43
2023-03-18T10:36:06.228Z,4.50
2023-03-18T10:38:39.794Z,4.45
2023-03-18T10:41:19.480Z,4.68
2023-03-18T10:43:52.164Z,5.80
2023-03-18T10:46:24.681Z,5.18
2023-03-18T10:48:57.474Z,4.72
2023-03-18T10:51:35.482Z,4.38
2023-03-18T10:54:13.851Z,6.32
2023-03-18T10:56:44.174Z,5.35
2023-03-18T10:59:19.149Z,6.15
2023-03-18T11:01:51.794Z,5.65
2023-03-18T11:04:24.200Z,7.53
2023-03-18T11:06:59.655Z,4.25
2023-03-18T11:09:36.290Z,4.22
2023-03-18T11:12:08.564Z,5.03
2023-03-18T11:14:40.456Z,4.72
2023-03-18T11:17:24.088Z,6.07
2023-03-18T11:20:07.144Z,4.57
2023-03-18T11:22:41.150Z,6.40
2023-03-18T11:25:18.132Z,3.75
2023-03-18T11:27:51.375Z,2.97
2023-03-18T11:30:40.663Z,3.75
2023-03-18T11:33:18.205Z,5.57
2023-03-18T11:35:53.372Z,5.95
2023-03-18T11:38:30.146Z,4.60
2023-03-18T11:41:10.192Z,4.97
2023-03-18T11:43:41.581Z,3.67
2023-03-18T11:46:13.809Z,4.20
2023-03-18T11:48:46.225Z,3.33
2023-03-18T11:51:38.550Z,6.10
2023-03-18T11:54:44.452Z,3.20
2023-03-18T11:57:20.938Z,3.85
2023-03-18T12:00:04.550Z,4.97
2023-03-18T12:03:09.806Z,3.55
2023-03-18T12:05:55.175Z,6.75
2023-03-18T12:08:36.468Z,4.05
2023-03-18T12:11:20.105Z,4.63
2023-03-18T12:14:02.032Z,3.55
2023-03-18T12:16:46.977Z,3.10
2023-03-18T12:19:41.827Z,3.50
2023-03-18T12:22:30.895Z,3.30
2023-03-18T12:25:15.989Z,2.85
2023-03-18T12:27:56.700Z,2.53
2023-03-18T12:30:53.263Z,2.67
2023-03-18T12:33:46.544Z,2.55
2023-03-18T12:36:25.603Z,4.45
2023-03-18T12:39:21.562Z,3.80
2023-03-18T12:42:01.309Z,2.70
2023-03-18T12:44:54.689Z,3.00
2023-03-18T12:47:28.701Z,3.45
2023-03-18T12:50:03.889Z,4.18
2023-03-18T12:52:40.311Z,5.68
2023-03-18T12:55:19.033Z,2.85
2023-03-18T12:57:52.373Z,3.42
2023-03-18T13:00:30.135Z,5.32
2023-03-18T13:03:07.707Z,2.72
2023-03-18T13:05:45.589Z,3.70
2023-03-18T13:08:47.129Z,4.80
2023-03-18T13:11:32.252Z,3.95
2023-03-18T13:14:06.555Z,4.50
2023-03-18T13:16:41.358Z,4.53
2023-03-18T13:19:12.751Z,3.47
2023-03-18T13:21:46.003Z,3.28
2023-03-18T13:24:39.962Z,3.17
2023-03-18T13:27:44.712Z,2.28
2023-03-18T13:30:25.195Z,1.95
2023-03-18T13:33:14.521Z,2.10
2023-03-18T13:36:00.486Z,1.33
2023-03-18T13:38:46.084Z,2.28
2023-03-18T13:41:54.818Z,1.70
2023-03-18T13:44:28.543Z,2.72
2023-03-18T13:47:04.084Z,2.80
2023-03-18T13:49:39.242Z,2.40
2023-03-18T13:52:27.089Z,1.63
2023-03-18T13:54:57.235Z,1.88
2023-03-18T13:57:57.896Z,3.65
2023-03-18T14:00:33.409Z,2.88
2023-03-18T14:03:24.987Z,4.63
2023-03-18T14:06:26.882Z,4.05
2023-03-18T14:08:57.001Z,3.35
2023-03-18T14:11:51.946Z,3.05
2023-03-18T14:14:53.821Z,2.47
2023-03-18T14:17:37.121Z,2.60
2023-03-18T14:20:24.914Z,2.42
2023-03-18T14:22:59.175Z,2.55
2023-03-18T14:25:43.226Z,3.92
2023-03-18T14:28:26.649Z,3.53
2023-03-18T14:31:22.356Z,6.88
2023-03-18T14:34:05.359Z,2.05
2023-03-18T14:37:25.922Z,2.03
2023-03-18T14:40:03.918Z,2.67
2023-03-18T14:42:47.877Z,2.05
2023-03-18T14:45:23.908Z,2.83
2023-03-18T14:47:55.664Z,2.60
2023-03-18T14:50:38.029Z,4.75
2023-03-18T14:53:15.376Z,3.25
2023-03-18T14:58:20.141Z,2.95
2023-03-18T15:00:53.460Z,5.50
2023-03-18T15:03:27.403Z,6.30
2023-03-18T15:06:01.611Z,3.13
2023-03-18T15:08:47.311Z,4.25
2023-03-18T15:11:23.792Z,2.95
2023-03-18T15:14:00.051Z,2.92
2023-03-18T15:16:33.172Z,5.57
2023-03-18T15:19:03.687Z,1.88
2023-03-18T15:21:36.007Z,2.17
2023-03-18T15:24:08.125Z,3.35
2023-03-18T15:26:43.507Z,2.63
2023-03-18T15:29:31.561Z,2.08
2023-03-18T15:32:11.390Z,3.05
2023-03-18T15:34:46.038Z,2.60
2023-03-18T15:37:40.425Z,2.55
2023-03-18T15:40:29.188Z,2.00
2023-03-18T15:43:08.553Z,5.00
2023-03-18T15:45:39.652Z,1.48
2023-03-18T15:48:15.165Z,3.22
2023-03-18T15:50:55.790Z,2.97
2023-03-18T15:53:28.477Z,3.58
2023-03-18T15:56:00.346Z,3.25
2023-03-18T15:58:39.988Z,2.45
2023-03-18T16:01:12.806Z,3.95
2023-03-18T16:03:43.347Z,3.65
2023-03-18T16:06:13.599Z,2.15
2023-03-18T16:08:45.261Z,3.10
2023-03-18T16:11:17.271Z,4.32
2023-03-18T16:13:50.267Z,3.28
2023-03-18T16:16:26.411Z,2.63
2023-03-18T16:18:57.414Z,2.70
2023-03-18T16:21:27.716Z,2.90
2023-03-18T16:23:58.530Z,4.28
2023-03-18T16:29:02.046Z,3.80
2023-03-18T16:31:32.178Z,4.10
2023-03-18T16:34:02.324Z,3.70
2023-03-18T16:36:36.361Z,3.47
2023-03-18T16:39:19.051Z,3.70
2023-03-18T16:41:49.831Z,3.67
2023-03-18T16:46:57.638Z,2.45
2023-03-18T16:49:31.924Z,3.47
2023-03-18T16:52:02.448Z,4.35
2023-03-18T16:54:36.086Z,2.78
2023-03-18T16:57:08.264Z,3.35
2023-03-18T16:59:41.450Z,5.18
2023-03-18T17:02:30.700Z,3.10
2023-03-18T17:05:01.192Z,6.50
2023-03-18T17:07:31.337Z,4.25
2023-03-18T17:10:01.590Z,3.45
2023-03-18T17:12:31.613Z,3.20
2023-03-18T17:15:04.708Z,3.75
2023-03-18T17:17:36.499Z,5.13
2023-03-18T17:20:17.374Z,6.15
2023-03-18T17:22:47.477Z,5.00
2023-03-18T17:25:18.008Z,5.55
2023-03-18T17:27:49.853Z,5.72
2023-03-18T17:30:25.351Z,4.55
2023-03-18T17:32:55.761Z,4.70
2023-03-18T17:35:27.187Z,4.82
2023-03-18T17:37:57.381Z,3.58
2023-03-18T17:40:31.793Z,3.40
2023-03-18T17:43:02.039Z,3.53
2023-03-18T17:45:36.923Z,6.63
2023-03-18T17:48:20.017Z,6.18
2023-03-18T17:50:51.793Z,6.45
2023-03-18T17:53:32.029Z,5.97
2023-03-18T17:56:03.332Z,3.40
2023-03-18T17:58:34.963Z,7.13
2023-03-18T18:01:09.886Z,14.02
2023-03-18T18:03:42.241Z,4.05
2023-03-18T18:06:20.507Z,3.50
2023-03-18T18:08:50.782Z,4.35
2023-03-18T18:11:24.113Z,4.40
2023-03-18T18:13:56.312Z,5.28
2023-03-18T18:16:30.460Z,8.98
2023-03-18T18:19:00.801Z,4.88
2023-03-18T18:21:31.280Z,2.58
2023-03-18T18:24:01.576Z,4.07
2023-03-18T18:26:31.682Z,2.17
2023-03-18T18:29:01.920Z,2.67
2023-03-18T18:31:35.860Z,2.88
2023-03-18T18:34:06.741Z,1.00
2023-03-18T18:36:38.015Z,1.40
2023-03-18T18:39:08.250Z,2.50
2023-03-18T18:41:40.554Z,1.83
2023-03-18T18:44:10.699Z,1.83
2023-03-18T18:46:43.588Z,2.45
2023-03-18T18:49:22.630Z,2.38
2023-03-18T18:51:53.545Z,2.67
2023-03-18T18:54:24.159Z,4.95
2023-03-18T18:56:55.039Z,4.85
2023-03-18T18:59:27.711Z,4.07
2023-03-18T19:02:00.809Z,3.75
2023-03-18T19:04:30.885Z,2.28
2023-03-18T19:07:02.950Z,3.35
2023-03-18T19:09:33.190Z,3.63
2023-03-18T19:12:04.338Z,3.50
2023-03-18T19:14:34.504Z,2.67
2023-03-18T19:17:07.899Z,2.97
2023-03-18T19:19:38.020Z,3.80
2023-03-18T19:22:08.416Z,3.70
2023-03-18T19:24:39.492Z,2.55
2023-03-18T19:27:18.449Z,4.65
2023-03-18T19:29:49.172Z,4.32
2023-03-18T19:32:24.006Z,2.60
2023-03-18T19:34:55.158Z,3.00
2023-03-18T19:37:29.630Z,4.88
2023-03-18T19:40:00.025Z,3.42
2023-03-18T19:42:30.084Z,3.45
2023-03-18T19:45:00.499Z,4.97
2023-03-18T19:47:34.154Z,5.28
2023-03-18T19:50:04.442Z,3.70
2023-03-18T19:52:34.872Z,3.75
2023-03-18T19:55:08.463Z,2.80
2023-03-18T19:57:38.825Z,3.50
2023-03-18T20:00:22.597Z,3.78
2023-03-18T20:02:55.774Z,4.15
2023-03-18T20:05:27.580Z,2.92
2023-03-18T20:07:57.856Z,2.78
2023-03-18T20:10:29.924Z,3.67
2023-03-18T20:13:00.305Z,2.55
2023-03-18T20:15:31.278Z,2.33
2023-03-18T20:18:04.374Z,4.78
2023-03-18T20:20:35.662Z,3.53
2023-03-18T20:23:07.437Z,3.03
2023-03-18T20:25:41.219Z,3.97
2023-03-18T20:28:17.571Z,3.28
2023-03-18T20:30:51.127Z,2.70
2023-03-18T20:33:26.324Z,2.95
2023-03-18T20:35:57.314Z,4.05
2023-03-18T20:38:29.977Z,3.53
2023-03-18T20:41:00.549Z,4.38
2023-03-18T20:43:31.667Z,3.75
2023-03-18T20:48:38.326Z,4.30
2023-03-18T20:51:12.925Z,4.00
2023-03-18T20:53:43.454Z,3.40
2023-03-18T20:56:13.693Z,3.88
2023-03-18T20:58:43.985Z,4.28
2023-03-18T21:01:15.956Z,2.85
2023-03-18T21:03:49.261Z,4.65
2023-03-18T21:06:21.225Z,3.72
2023-03-18T21:08:51.305Z,2.45
2023-03-18T21:11:27.053Z,3.33
2023-03-18T21:13:57.359Z,3.83
2023-03-18T21:16:27.890Z,2.95
2023-03-18T21:19:00.715Z,3.25
2023-03-18T21:21:37.048Z,4.22
2023-03-18T21:24:25.603Z,3.55
2023-03-18T21:27:04.608Z,4.45
2023-03-18T21:29:35.559Z,2.78
2023-03-18T21:32:05.802Z,3.97
2023-03-18T21:34:38.514Z,4.30
2023-03-18T21:37:17.012Z,3.47
2023-03-18T21:39:47.843Z,5.55
2023-03-18T21:42:23.717Z,5.10
2023-03-18T21:44:54.311Z,4.82
2023-03-18T21:47:26.817Z,3.25
2023-03-18T21:49:59.503Z,3.22
2023-03-18T21:52:32.855Z,4.47
2023-03-18T21:55:04.245Z,3.90
2023-03-18T21:57:34.560Z,4.38
2023-03-18T22:00:04.852Z,3.33
2023-03-18T22:02:36.725Z,4.80
2023-03-18T22:05:14.787Z,4.10
2023-03-18T22:07:44.941Z,3.25
2023-03-18T22:10:18.933Z,3.78
2023-03-18T22:12:49.178Z,3.03
2023-03-18T22:15:39.964Z,3.53
2023-03-18T22:18:10.576Z,3.75
2023-03-18T22:20:44.213Z,2.97
2023-03-18T22:23:19.474Z,3.90
2023-03-18T22:25:51.353Z,2.65
2023-03-18T22:28:22.146Z,3.03
2023-03-18T22:30:55.383Z,4.05
2023-03-18T22:33:29.237Z,4.10
2023-03-18T22:36:02.317Z,4.35
2023-03-18T22:38:32.670Z,3.75
2023-03-18T22:41:02.981Z,2.38
2023-03-18T22:43:35.317Z,4.35
2023-03-18T22:46:07.465Z,3.85
2023-03-18T22:48:37.571Z,3.08
2023-03-18T22:51:10.897Z,3.22
2023-03-18T22:53:42.801Z,5.85
2023-03-18T22:56:14.580Z,3.80
2023-03-18T22:58:45.211Z,3.72
2023-03-18T23:01:18.795Z,4.18
2023-03-18T23:03:49.244Z,2.97
2023-03-18T23:06:26.083Z,4.32
2023-03-18T23:08:56.290Z,4.00
2023-03-18T23:11:27.299Z,4.68
2023-03-18T23:16:28.247Z,3.60
2023-03-18T23:18:58.310Z,3.90
2023-03-18T23:21:31.157Z,3.90
2023-03-18T23:24:01.600Z,3.20
2023-03-18T23:26:32.013Z,4.95
2023-03-18T23:31:48.323Z,3.92
2023-03-18T23:34:18.473Z,3.60
2023-03-18T23:36:51.523Z,3.47
2023-03-18T23:39:21.638Z,4.75
2023-03-18T23:41:52.037Z,3.80
2023-03-18T23:44:25.622Z,3.40
2023-03-18T23:46:56.152Z,3.75
2023-03-18T23:49:32.544Z,5.97
2023-03-18T23:52:07.366Z,3.83
2023-03-18T23:54:39.318Z,4.50
2023-03-18T23:57:12.146Z,4.60
2023-03-18T23:59:42.380Z,4.72
